Time;durP1;ratioP1;P1;durP2;ratioP2;P2;SDS_P1;SDS_P2;PMS_P1;PMS_P2;Temp;Humidity;BMP_temperature;BMP_pressure;BME280_temperature;BME280_humidity;BME280_pressure;Samples;Min_cycle;Max_cycle;Signal;HPM_P1;HPM_P2
2021/04/08 00:01:47;;;;;;;7.65;6.95;;;;;;;7.28;62.33;99500.41;5074366;28;20039;-77
2021/04/08 00:04:13;;;;;;;7.45;6.47;;;;;;;6.69;62.88;99418.13;5074436;28;20385;-77
2021/04/08 00:06:38;;;;;;;7.18;6.47;;;;;;;6.97;63.23;99476.47;5056507;28;20074;-76
2021/04/08 00:09:05;;;;;;;7.60;6.90;;;;;;;7.21;62.79;99502.03;5074512;28;20067;-77
2021/04/08 00:11:31;;;;;;;7.03;6.32;;;;;;;6.96;63.24;99509.78;5074318;28;20024;-77
2021/04/08 00:13:56;;;;;;;7.13;6.07;;;;;;;6.89;63.83;99529.75;5074089;28;20328;-78
2021/04/08 00:16:22;;;;;;;6.78;5.97;;;;;;;6.85;64.26;99540.72;5074422;28;20115;-81
2021/04/08 00:18:48;;;;;;;7.20;6.10;;;;;;;6.84;63.69;99547.75;5074133;28;20119;-78
2021/04/08 00:21:13;;;;;;;7.05;6.28;;;;;;;6.47;64.18;99492.88;5074372;28;20032;-77
2021/04/08 00:23:38;;;;;;;6.50;5.90;;;;;;;6.44;63.79;99480.06;5056417;28;20016;-77
2021/04/08 00:26:04;;;;;;;7.50;6.80;;;;;;;6.17;63.57;99425.16;5056581;28;20029;-77
2021/04/08 00:28:30;;;;;;;6.68;6.03;;;;;;;6.60;64.73;99531.81;5074149;28;20111;-78
2021/04/08 00:30:56;;;;;;;10.35;7.20;;;;;;;6.60;64.36;99534.44;5056292;28;20067;-77
2021/04/08 00:33:21;;;;;;;7.40;6.50;;;;;;;5.92;65.01;99440.66;5074212;28;20021;-84
2021/04/08 00:35:47;;;;;;;6.85;6.00;;;;;;;6.48;64.50;99501.56;5074090;28;20028;-78
2021/04/08 00:38:13;;;;;;;8.93;6.70;;;;;;;6.65;64.32;99521.69;5074068;28;20424;-78
2021/04/08 00:40:39;;;;;;;7.00;6.40;;;;;;;6.40;63.74;99507.59;5075030;28;20058;-78
2021/04/08 00:43:05;;;;;;;7.18;6.35;;;;;;;6.37;64.27;99500.00;5077976;28;20048;-78
2021/04/08 00:45:32;;;;;;;6.88;6.18;;;;;;;6.38;64.13;99523.47;5077874;28;20074;-79
2021/04/08 00:47:57;;;;;;;6.80;6.10;;;;;;;6.20;64.49;99501.69;5077739;28;20151;-78
2021/04/08 00:50:23;;;;;;;7.18;5.97;;;;;;;6.28;64.20;99512.25;5077841;28;20067;-78
2021/04/08 00:53:11;;;;;;;6.90;6.20;;;;;;;6.18;64.19;99489.69;5077652;28;20106;-77
2021/04/08 00:55:40;;;;;;;7.40;6.70;;;;;;;6.24;65.09;99537.13;5077856;28;20029;-78
2021/04/08 00:58:06;;;;;;;6.60;6.00;;;;;;;6.00;64.73;99484.47;5077618;28;20491;-79
2021/04/08 01:00:34;;;;;;;6.53;5.93;;;;;;;6.19;64.46;99543.78;5059851;28;20025;-77
2021/04/08 01:03:00;;;;;;;5.47;4.97;;;;;;;6.21;64.82;99550.53;5077407;28;20024;-78
2021/04/08 01:05:26;;;;;;;6.45;5.88;;;;;;;6.12;64.28;99561.09;5077547;28;20427;-78
2021/04/08 01:07:51;;;;;;;7.45;5.68;;;;;;;5.98;64.44;99538.84;5059595;28;20026;-78
2021/04/08 01:10:20;;;;;;;6.55;5.95;;;;;;;5.83;64.61;99520.13;5077420;28;20462;-79
2021/04/08 01:12:46;;;;;;;7.15;6.22;;;;;;;5.61;64.41;99486.50;5077164;28;20029;-78
2021/04/08 01:15:13;;;;;;;6.38;5.78;;;;;;;6.15;64.53;99577.34;5077310;28;20446;-79
2021/04/08 01:17:47;;;;;;;6.03;5.43;;;;;;;5.91;63.93;99528.09;5077146;28;20051;-78
2021/04/08 01:20:37;;;;;;;6.78;6.10;;;;;;;6.21;63.84;99575.91;5077378;28;20029;-78
2021/04/08 01:23:21;;;;;;;7.80;6.55;;;;;;;6.20;63.47;99582.13;5059184;28;20025;-78
2021/04/08 01:26:15;;;;;;;6.15;5.55;;;;;;;6.09;63.92;99587.59;5077108;28;20411;-79
2021/04/08 01:28:47;;;;;;;6.55;5.88;;;;;;;5.85;64.21;99552.22;5070137;28;20359;-79
2021/04/08 01:31:16;;;;;;;6.47;5.88;;;;;;;6.03;64.37;99583.75;5077105;28;20024;-78
2021/04/08 01:33:43;;;;;;;6.88;5.95;;;;;;;5.76;64.36;99550.50;5076676;28;20025;-79
2021/04/08 01:36:13;;;;;;;6.57;5.83;;;;;;;5.89;64.29;99589.44;5059266;28;20032;-79
2021/04/08 01:38:44;;;;;;;8.10;6.17;;;;;;;5.74;64.18;99558.50;5076919;28;20021;-79
2021/04/08 01:41:10;;;;;;;6.95;5.95;;;;;;;5.90;64.05;99568.38;5076955;28;20103;-78
2021/04/08 01:43:42;;;;;;;8.50;6.70;;;;;;;5.98;63.66;99578.16;5076823;28;20107;-81
2021/04/08 01:46:09;;;;;;;6.60;5.97;;;;;;;5.96;64.33;99601.06;5076668;28;20028;-79
2021/04/08 01:48:36;;;;;;;6.50;5.90;;;;;;;5.59;64.17;99522.47;5059418;28;20025;-79
2021/04/08 01:51:04;;;;;;;5.93;5.32;;;;;;;5.94;63.84;99563.66;5076170;28;20016;-78
2021/04/08 01:53:32;;;;;;;6.13;5.63;;;;;;;5.49;63.70;99485.03;5076771;28;20016;-80
2021/04/08 01:56:00;;;;;;;6.45;5.80;;;;;;;6.16;64.07;99589.47;5076372;28;20442;-78
2021/04/08 01:58:27;;;;;;;6.43;5.30;;;;;;;6.26;64.17;99584.97;5076480;28;20071;-78
2021/04/08 02:00:54;;;;;;;7.20;6.50;;;;;;;5.96;63.90;99533.75;5076315;28;20048;-78
2021/04/08 02:03:21;;;;;;;6.90;5.43;;;;;;;5.97;63.85;99530.16;5076471;28;20020;-80
2021/04/08 02:05:48;;;;;;;7.27;6.57;;;;;;;6.12;63.55;99572.38;5076290;28;20444;-76
2021/04/08 02:08:14;;;;;;;7.05;6.35;;;;;;;5.83;63.51;99503.56;5076294;28;20024;-77
2021/04/08 02:10:41;;;;;;;6.55;5.80;;;;;;;6.42;63.64;99586.09;5076302;28;20068;-77
2021/04/08 02:13:11;;;;;;;7.37;6.67;;;;;;;6.24;63.52;99552.03;5058449;28;20024;-79
2021/04/08 02:15:37;;;;;;;8.27;6.70;;;;;;;6.41;63.74;99587.91;5058395;28;20411;-77
2021/04/08 02:18:04;;;;;;;6.50;5.80;;;;;;;6.35;63.14;99585.88;5075798;28;20128;-78
2021/04/08 02:20:32;;;;;;;6.97;6.28;;;;;;;6.49;63.49;99602.88;5076242;28;20056;-76
2021/04/08 02:23:00;;;;;;;7.37;6.67;;;;;;;6.28;63.23;99554.19;5075887;28;20504;-79
2021/04/08 02:25:30;;;;;;;6.63;6.03;;;;;;;6.35;63.20;99575.38;5058073;28;20358;-79
2021/04/08 02:27:58;;;;;;;7.07;6.32;;;;;;;6.31;63.00;99564.38;5058359;28;20044;-78
2021/04/08 02:30:25;;;;;;;8.32;7.18;;;;;;;6.31;62.82;99540.78;5075921;28;20107;-78
2021/04/08 02:32:51;;;;;;;8.05;7.25;;;;;;;6.31;63.07;99556.50;5058726;28;20026;-77
2021/04/08 02:35:17;;;;;;;7.40;6.70;;;;;;;6.60;63.06;99598.22;5075634;28;20024;-77
2021/04/08 02:37:44;;;;;;;9.52;7.88;;;;;;;6.56;62.87;99607.38;5075564;28;20028;-77
2021/04/08 02:40:12;;;;;;;7.88;7.07;;;;;;;5.75;63.06;99488.59;5058069;28;20496;-77
2021/04/08 02:42:37;;;;;;;7.38;6.68;;;;;;;6.33;63.13;99586.03;5075825;28;20024;-77
2021/04/08 02:45:04;;;;;;;8.63;7.78;;;;;;;6.42;63.17;99588.72;5075385;28;20319;-78
2021/04/08 02:47:30;;;;;;;8.10;7.30;;;;;;;6.12;63.79;99535.69;5075617;28;20040;-78
2021/04/08 02:49:55;;;;;;;9.20;7.77;;;;;;;6.44;63.63;99600.72;5075383;28;20561;-77
2021/04/08 02:52:25;;;;;;;9.85;7.47;;;;;;;6.40;63.19;99586.25;5057957;28;20030;-78
2021/04/08 02:55:07;;;;;;;8.27;7.30;;;;;;;6.08;63.38;99546.63;5057515;28;20320;-78
2021/04/08 02:57:52;;;;;;;7.88;7.18;;;;;;;5.96;63.67;99535.53;5057675;28;20036;-77
2021/04/08 03:00:18;;;;;;;7.45;6.72;;;;;;;6.35;63.64;99591.94;5075551;28;20035;-78
2021/04/08 03:02:45;;;;;;;6.80;6.15;;;;;;;6.42;63.31;99593.97;5057028;28;20123;-77
2021/04/08 03:05:12;;;;;;;7.60;6.80;;;;;;;6.12;63.18;99533.06;5074933;28;20431;-78
2021/04/08 03:07:44;;;;;;;9.98;6.95;;;;;;;6.15;63.13;99532.78;5075238;28;20054;-78
2021/04/08 03:10:13;;;;;;;7.43;6.65;;;;;;;6.47;63.30;99592.53;5075345;28;20390;-77
2021/04/08 03:12:43;;;;;;;8.13;7.30;;;;;;;6.54;63.43;99600.63;5075135;28;20028;-78
2021/04/08 03:15:10;;;;;;;9.03;8.23;;;;;;;6.55;63.44;99610.97;5075153;28;20082;-78
2021/04/08 03:17:40;;;;;;;10.05;9.05;;;;;;;5.88;63.57;99511.81;5074887;28;20122;-77
2021/04/08 03:20:07;;;;;;;9.00;8.02;;;;;;;6.61;63.73;99622.66;5074823;28;20438;-78
2021/04/08 03:22:35;;;;;;;10.00;8.95;;;;;;;6.62;63.41;99633.00;5074946;28;20024;-77
2021/04/08 03:25:02;;;;;;;12.48;10.07;;;;;;;6.62;63.60;99635.63;5074676;28;20048;-77
2021/04/08 03:27:29;;;;;;;10.55;9.05;;;;;;;6.68;62.96;99635.03;5057228;28;20028;-77
2021/04/08 03:29:55;;;;;;;12.35;11.05;;;;;;;6.15;63.42;99569.47;5074866;28;20094;-77
2021/04/08 03:32:21;;;;;;;10.68;8.45;;;;;;;6.60;63.26;99636.75;5074902;28;20427;-78
2021/04/08 03:34:48;;;;;;;10.57;9.47;;;;;;;6.54;63.24;99642.59;5074629;28;20094;-79
2021/04/08 03:37:15;;;;;;;10.73;9.15;;;;;;;6.41;63.55;99624.63;5074659;28;20028;-78
2021/04/08 03:39:40;;;;;;;14.07;11.88;;;;;;;6.31;63.17;99637.78;5056858;28;20396;-78
2021/04/08 03:42:07;;;;;;;12.82;11.13;;;;;;;6.44;63.51;99649.72;5056854;28;20111;-79
2021/04/08 03:44:33;;;;;;;11.05;9.93;;;;;;;6.43;63.54;99651.53;5074730;28;20410;-78
2021/04/08 03:46:59;;;;;;;11.25;9.63;;;;;;;6.39;63.81;99655.41;5056547;28;20029;-77
2021/04/08 03:49:27;;;;;;;10.73;9.43;;;;;;;6.51;63.67;99677.00;5056729;28;20017;-77
2021/04/08 03:51:53;;;;;;;8.77;7.43;;;;;;;6.53;63.53;99662.75;5074541;28;20042;-77
2021/04/08 03:54:21;;;;;;;9.70;8.70;;;;;;;6.18;64.20;99632.09;5074336;28;20442;-78
2021/04/08 03:56:48;;;;;;;9.05;8.15;;;;;;;6.51;63.68;99682.25;5074415;28;20020;-78
2021/04/08 03:59:17;;;;;;;9.93;8.37;;;;;;;6.53;63.75;99686.38;5056724;28;20024;-77
2021/04/08 04:01:44;;;;;;;12.07;10.80;;;;;;;6.43;63.70;99697.91;5074498;28;20025;-78
2021/04/08 04:04:10;;;;;;;9.68;8.65;;;;;;;6.24;64.23;99699.66;5056696;28;20342;-78
2021/04/08 04:06:39;;;;;;;9.48;8.50;;;;;;;6.35;64.47;99730.09;5056714;28;20027;-78
2021/04/08 04:09:06;;;;;;;10.05;9.05;;;;;;;6.41;63.92;99749.69;5056321;28;20028;-79
2021/04/08 04:11:34;;;;;;;9.23;8.32;;;;;;;5.96;63.51;99692.78;5074367;28;20048;-77
2021/04/08 04:14:02;;;;;;;10.77;9.68;;;;;;;5.89;64.10;99694.25;5073946;28;20431;-78
2021/04/08 04:16:31;;;;;;;10.52;9.43;;;;;;;6.02;64.42;99773.44;5078443;28;20029;-78
2021/04/08 04:18:57;;;;;;;9.83;8.83;;;;;;;5.85;64.50;99754.00;5078222;28;20059;-78
2021/04/08 04:21:23;;;;;;;10.27;9.27;;;;;;;5.52;64.57;99704.72;5078410;28;20040;-78
2021/04/08 04:23:49;;;;;;;11.70;10.47;;;;;;;5.70;65.09;99745.75;5060344;28;20024;-78
2021/04/08 04:26:14;;;;;;;10.73;8.97;;;;;;;5.53;65.24;99719.47;5078384;28;20349;-78
2021/04/08 04:28:40;;;;;;;13.67;12.27;;;;;;;5.72;65.17;99754.31;5060535;28;20400;-78
2021/04/08 04:31:06;;;;;;;10.17;9.17;;;;;;;5.02;65.21;99642.13;5078248;28;20043;-78
2021/04/08 04:33:31;;;;;;;10.57;9.57;;;;;;;5.21;65.49;99681.38;5078227;28;20024;-78
2021/04/08 04:35:57;;;;;;;10.97;9.40;;;;;;;5.56;65.11;99719.19;5077989;28;20028;-78
2021/04/08 04:38:22;;;;;;;10.60;9.53;;;;;;;5.74;65.07;99754.97;5077780;28;20024;-77
2021/04/08 04:40:48;;;;;;;9.10;8.20;;;;;;;5.73;65.21;99768.22;5077986;28;20388;-78
2021/04/08 04:43:14;;;;;;;11.30;9.83;;;;;;;5.03;65.15;99656.84;5077962;28;20394;-78
2021/04/08 04:45:39;;;;;;;11.50;9.90;;;;;;;5.82;65.32;99780.47;5077918;28;20067;-78
2021/04/08 04:48:05;;;;;;;13.07;11.70;;;;;;;5.61;65.40;99737.94;5077717;28;20028;-78
2021/04/08 04:50:30;;;;;;;9.70;8.70;;;;;;;5.62;65.65;99752.66;5077865;28;20104;-78
2021/04/08 04:52:56;;;;;;;11.17;10.07;;;;;;;5.88;65.23;99806.09;5077411;28;20082;-77
2021/04/08 04:55:21;;;;;;;12.20;10.47;;;;;;;5.53;65.14;99762.19;5077642;28;20029;-76
2021/04/08 04:57:46;;;;;;;11.00;9.90;;;;;;;5.75;64.40;99797.72;5077581;28;20112;-77
2021/04/08 05:00:12;;;;;;;11.50;9.87;;;;;;;5.40;64.73;99746.78;5058184;28;20017;-77
2021/04/08 05:02:38;;;;;;;9.43;8.43;;;;;;;5.30;64.33;99740.72;5056067;28;20024;-80
2021/04/08 05:05:04;;;;;;;9.43;7.87;;;;;;;5.11;64.71;99728.47;5065553;28;20056;-88
2021/04/08 05:07:29;;;;;;;9.50;8.60;;;;;;;5.08;64.28;99730.53;5040330;28;20135;-83
2021/04/08 05:09:55;;;;;;;10.03;8.57;;;;;;;5.25;64.50;99787.44;5056501;28;20059;-82
2021/04/08 05:12:21;;;;;;;10.97;9.70;;;;;;;5.11;64.53;99756.41;5059839;28;20024;-84
2021/04/08 05:14:46;;;;;;;10.30;9.20;;;;;;;5.22;64.45;99779.03;5059416;28;20135;-81
2021/04/08 05:17:12;;;;;;;10.67;8.73;;;;;;;4.62;64.97;99710.28;5059574;28;20072;-83
2021/04/08 05:19:37;;;;;;;9.27;8.37;;;;;;;5.38;64.93;99819.41;5060739;28;20033;-79
2021/04/08 05:22:03;;;;;;;13.90;11.10;;;;;;;5.60;64.88;99870.69;5075705;28;20032;-81
2021/04/08 05:24:28;;;;;;;12.30;10.47;;;;;;;4.61;64.83;99691.13;5057666;28;20017;-79
2021/04/08 05:26:54;;;;;;;15.97;12.07;;;;;;;4.82;65.17;99721.56;5075017;28;20020;-87
2021/04/08 05:29:19;;;;;;;13.53;11.37;;;;;;;4.70;64.59;99698.16;5057939;28;20459;-87
2021/04/08 05:31:45;;;;;;;12.53;10.00;;;;;;;5.02;64.99;99770.31;5058258;28;20029;-79
2021/04/08 05:34:11;;;;;;;15.63;12.67;;;;;;;5.53;64.50;99837.31;5058413;28;20035;-80
2021/04/08 05:36:36;;;;;;;16.00;13.10;;;;;;;4.91;64.92;99736.44;5069660;28;20035;-80
2021/04/08 05:39:03;;;;;;;15.73;13.87;;;;;;;5.58;64.94;99833.31;5060602;28;20197;-79
2021/04/08 05:41:28;;;;;;;14.90;11.53;;;;;;;5.71;64.88;99851.38;5068225;28;20028;-79
2021/04/08 05:43:54;;;;;;;13.83;12.33;;;;;;;5.14;64.90;99776.25;5076107;28;20098;-80
2021/04/08 05:46:19;;;;;;;13.07;11.37;;;;;;;5.36;65.12;99825.75;5058155;28;20031;-80
2021/04/08 05:48:45;;;;;;;12.97;11.57;;;;;;;5.31;64.76;99810.47;5075894;28;20423;-80
2021/04/08 05:51:10;;;;;;;9.23;8.23;;;;;;;5.00;64.82;99757.38;5060857;28;20114;-79
2021/04/08 05:53:36;;;;;;;9.33;8.23;;;;;;;5.42;65.19;99857.44;5054754;28;20036;-79
2021/04/08 05:56:01;;;;;;;12.23;10.87;;;;;;;5.36;64.83;99844.91;5058107;28;20462;-79
2021/04/08 05:58:27;;;;;;;16.33;14.50;;;;;;;5.44;64.38;99859.94;5075109;28;20400;-78
2021/04/08 06:00:52;;;;;;;13.30;11.67;;;;;;;5.40;65.02;99869.03;5059560;28;20036;-83
2021/04/08 06:03:18;;;;;;;13.07;11.53;;;;;;;5.27;64.91;99843.09;5052387;28;20415;-84
2021/04/08 06:05:43;;;;;;;18.23;15.00;;;;;;;5.21;65.48;99864.59;5058736;28;20078;-78
2021/04/08 06:08:08;;;;;;;18.30;16.17;;;;;;;5.19;65.69;99863.03;5075869;28;20124;-78
2021/04/08 06:10:34;;;;;;;13.43;11.57;;;;;;;5.16;65.36;99839.75;5076306;28;20025;-78
2021/04/08 06:12:59;;;;;;;12.07;10.13;;;;;;;5.26;65.29;99872.88;5076037;28;20048;-78
2021/04/08 06:15:27;;;;;;;13.17;11.87;;;;;;;5.32;65.66;99859.22;5076112;28;20063;-78
2021/04/08 06:17:53;;;;;;;14.63;12.90;;;;;;;5.31;65.46;99859.38;5075579;28;20473;-78
2021/04/08 06:20:18;;;;;;;16.00;13.70;;;;;;;5.03;65.67;99822.53;5057703;28;20033;-80
2021/04/08 06:22:44;;;;;;;14.10;12.57;;;;;;;5.21;66.03;99840.22;5076252;28;20074;-78
2021/04/08 06:25:09;;;;;;;17.50;14.87;;;;;;;5.22;65.63;99828.78;5074667;28;20025;-78
2021/04/08 06:27:35;;;;;;;17.40;13.73;;;;;;;5.52;65.49;99877.56;5075138;28;20035;-77
2021/04/08 06:30:05;;;;;;;19.47;16.77;;;;;;;5.63;65.16;99867.78;5071353;28;20385;-78
2021/04/08 06:32:30;;;;;;;22.80;18.83;;;;;;;4.81;65.10;99770.44;5057047;28;20029;-77
2021/04/08 06:34:56;;;;;;;22.37;18.03;;;;;;;5.09;65.83;99813.31;5057763;28;20086;-77
2021/04/08 06:37:22;;;;;;;22.17;19.77;;;;;;;5.40;65.64;99855.94;5075031;28;20090;-78
2021/04/08 06:39:48;;;;;;;21.13;18.77;;;;;;;5.37;65.88;99822.16;5074996;28;20083;-77
2021/04/08 06:42:18;;;;;;;21.87;17.10;;;;;;;5.74;65.67;99851.91;5075442;28;20029;-78
2021/04/08 06:44:48;;;;;;;21.13;18.90;;;;;;;5.84;65.54;99832.72;5054583;28;20036;-77
2021/04/08 06:47:20;;;;;;;27.23;23.03;;;;;;;5.78;65.25;99792.19;5081945;28;20438;-77
2021/04/08 06:49:51;;;;;;;;;;;;;;;6.18;65.35;99859.34;5094393;28;20331;-78
2021/04/08 06:52:18;;;;;;;22.58;18.75;;;;;;;6.37;64.06;99881.09;5083564;28;19912;-77
2021/04/08 06:54:45;;;;;;;20.13;15.70;;;;;;;6.13;63.77;99815.22;5049062;28;20493;-84
2021/04/08 06:57:15;;;;;;;24.70;17.57;;;;;;;6.55;63.74;99857.56;5075007;28;20036;-76
2021/04/08 06:59:41;;;;;;;21.83;16.42;;;;;;;6.60;63.04;99865.81;5048011;28;20029;-76
2021/04/08 07:02:14;;;;;;;20.58;17.05;;;;;;;6.05;62.69;99781.03;5066769;28;20174;-76
2021/04/08 07:04:40;;;;;;;35.58;24.90;;;;;;;6.61;63.46;99866.66;5057249;28;20066;-78
2021/04/08 07:07:05;;;;;;;26.58;18.55;;;;;;;6.67;62.76;99876.56;5074803;28;20067;-77
2021/04/08 07:09:31;;;;;;;23.77;18.17;;;;;;;6.40;63.25;99845.88;5057123;28;20427;-77
2021/04/08 07:11:59;;;;;;;18.10;15.20;;;;;;;6.55;62.26;99849.69;5064846;28;20443;-77
2021/04/08 07:14:26;;;;;;;17.02;14.95;;;;;;;6.62;62.66;99866.50;5074653;28;20035;-75
2021/04/08 07:16:51;;;;;;;14.80;12.82;;;;;;;6.78;62.04;99873.78;5055561;28;20374;-77
2021/04/08 07:19:18;;;;;;;14.82;12.25;;;;;;;6.84;62.24;99878.44;5053630;28;20036;-79
2021/04/08 07:21:44;;;;;;;14.05;12.55;;;;;;;6.12;61.92;99740.16;5066044;28;20029;-78
2021/04/08 07:24:19;;;;;;;13.55;12.02;;;;;;;7.10;61.89;99875.94;5063250;28;20020;-77
2021/04/08 07:26:59;;;;;;;16.15;14.40;;;;;;;7.17;61.20;99882.25;5055521;28;20043;-79
2021/04/08 07:29:40;;;;;;;14.13;12.68;;;;;;;7.23;60.29;99878.22;5073471;28;20106;-77
2021/04/08 07:32:09;;;;;;;17.35;14.40;;;;;;;7.00;60.86;99818.25;5071915;28;20062;-77
2021/04/08 07:34:44;;;;;;;17.67;14.65;;;;;;;7.31;60.73;99852.03;5053621;28;20028;-77
2021/04/08 07:37:10;;;;;;;18.25;15.48;;;;;;;7.07;60.52;99813.22;5065637;28;20036;-78
2021/04/08 07:39:43;;;;;;;16.63;14.77;;;;;;;7.28;60.47;99837.41;5072140;28;20043;-76
2021/04/08 07:42:11;;;;;;;16.00;13.88;;;;;;;7.44;60.17;99865.66;5073535;28;20423;-77
2021/04/08 07:44:58;;;;;;;16.73;12.90;;;;;;;7.69;57.53;99921.06;5074455;28;20363;-77
2021/04/08 07:47:32;;;;;;;13.65;11.10;;;;;;;7.58;59.21;99909.78;5056895;28;20459;-77
2021/04/08 07:50:04;;;;;;;16.55;13.45;;;;;;;7.72;58.22;99913.69;5090886;28;20024;-77
2021/04/08 07:52:31;;;;;;;14.90;12.63;;;;;;;7.61;58.25;99917.38;5070691;28;20028;-77
2021/04/08 07:55:23;;;;;;;11.45;10.00;;;;;;;6.90;57.34;99806.16;5074188;28;20028;-82
2021/04/08 07:57:52;;;;;;;14.32;12.07;;;;;;;7.71;57.82;99922.56;5088134;28;20095;-77
2021/04/08 08:00:28;;;;;;;11.82;10.23;;;;;;;7.75;57.68;99926.53;5075443;28;20045;-77
2021/04/08 08:02:56;;;;;;;10.95;9.45;;;;;;;7.81;56.76;99925.09;5082636;28;20032;-77
2021/04/08 08:05:27;;;;;;;12.75;11.30;;;;;;;7.52;56.65;99873.59;5087516;28;20021;-77
2021/04/08 08:07:54;;;;;;;10.10;9.10;;;;;;;7.89;55.87;99947.03;5058625;28;20039;-76
2021/04/08 08:10:23;;;;;;;11.52;9.70;;;;;;;7.62;55.01;99924.28;5062552;28;20127;-77
2021/04/08 08:12:49;;;;;;;10.07;8.63;;;;;;;7.43;55.36;99884.16;5079310;28;20028;-77
2021/04/08 08:15:21;;;;;;;11.65;9.75;;;;;;;7.68;55.71;99919.41;5071915;28;20025;-77
2021/04/08 08:17:47;;;;;;;14.45;11.30;;;;;;;7.74;56.02;99917.00;5055435;28;20056;-78
2021/04/08 08:20:13;;;;;;;14.43;12.20;;;;;;;7.95;56.22;99914.06;5080103;23;20067;-77
2021/04/08 08:22:41;;;;;;;12.35;10.02;;;;;;;8.06;55.83;99924.34;5072193;28;20075;-83
2021/04/08 08:25:07;;;;;;;12.05;9.10;;;;;;;7.91;55.84;99908.28;5056864;28;20033;-93
2021/04/08 08:27:37;;;;;;;11.77;10.57;;;;;;;7.84;56.28;99893.25;5072873;28;20127;-77
2021/04/08 08:30:04;;;;;;;11.57;10.38;;;;;;;7.90;56.37;99884.75;5063667;28;20027;-77
2021/04/08 08:32:29;;;;;;;11.43;9.68;;;;;;;8.22;55.81;99928.91;5071443;28;20029;-89
2021/04/08 08:34:55;;;;;;;10.88;9.77;;;;;;;8.37;55.76;99942.38;5067977;28;20043;-77
2021/04/08 08:37:21;;;;;;;11.00;9.90;;;;;;;8.49;55.83;99952.47;5050537;28;20033;-77
2021/04/08 08:39:51;;;;;;;12.70;11.25;;;;;;;8.22;55.43;99885.03;5050617;28;20037;-77
2021/04/08 08:42:19;;;;;;;14.65;11.35;;;;;;;8.66;55.36;99953.41;5047680;28;20466;-83
2021/04/08 08:44:44;;;;;;;12.10;10.90;;;;;;;8.27;55.76;99882.75;5043086;28;20087;-77
2021/04/08 08:47:22;;;;;;;13.55;10.50;;;;;;;8.51;55.16;99924.22;5063639;23;20510;-77
2021/04/08 08:49:57;;;;;;;13.38;12.07;;;;;;;8.81;55.17;99954.47;5056014;28;20021;-82
2021/04/08 08:52:44;;;;;;;15.93;13.27;;;;;;;8.56;54.63;99934.28;5077257;23;20136;-78
2021/04/08 08:55:13;;;;;;;12.88;10.73;;;;;;;8.74;54.69;99942.94;5068217;28;20089;-77
2021/04/08 08:57:40;;;;;;;13.88;11.00;;;;;;;6.19;54.52;99551.66;5076137;23;20052;-77
2021/04/08 09:00:09;;;;;;;13.02;11.20;;;;;;;8.95;54.64;99955.72;5077821;23;20036;-77
2021/04/08 09:02:35;;;;;;;13.73;11.73;;;;;;;8.90;54.41;99957.97;5074688;28;20039;-87
2021/04/08 09:05:14;;;;;;;12.32;10.65;;;;;;;7.37;54.63;99693.00;5093446;23;20135;-86
2021/04/08 09:10:13;;;;;;;12.27;10.20;;;;;;;6.87;53.51;99655.06;5092658;23;20100;-77
2021/04/08 09:12:42;;;;;;;11.23;10.02;;;;;;;9.09;53.38;99967.47;5076787;28;20040;-84
2021/04/08 09:15:18;;;;;;;11.85;9.35;;;;;;;9.06;52.85;99967.78;5081274;23;20060;-85
2021/04/08 09:17:46;;;;;;;9.52;8.63;;;;;;;8.44;53.23;99883.72;5059289;28;20111;-84
2021/04/08 09:20:19;;;;;;;9.25;8.35;;;;;;;9.05;52.09;99972.25;5083688;23;20049;-79
2021/04/08 09:22:53;;;;;;;10.90;8.50;;;;;;;9.09;52.13;99965.66;5141835;23;20052;-76
2021/04/08 09:25:27;;;;;;;11.57;9.05;;;;;;;8.44;52.33;99862.66;5059181;28;20036;-77
2021/04/08 09:27:59;;;;;;;10.75;9.32;;;;;;;9.23;52.23;99972.16;5058518;28;20040;-77
2021/04/08 09:30:54;;;;;;;9.75;8.57;;;;;;;9.31;51.65;99977.44;5076864;28;20090;-77
2021/04/08 09:33:42;;;;;;;17.63;12.55;;;;;;;9.02;50.38;99932.22;5076298;28;20032;-79
2021/04/08 09:36:20;;;;;;;10.30;9.15;;;;;;;9.30;51.53;99973.16;5071105;28;20035;-77
2021/04/08 09:38:46;;;;;;;10.48;9.38;;;;;;;9.02;51.57;99937.50;5076598;28;20039;-77
2021/04/08 09:41:42;;;;;;;8.52;7.65;;;;;;;9.21;50.29;99979.38;5080182;23;20036;-86
2021/04/08 09:44:09;;;;;;;10.10;7.97;;;;;;;9.19;51.13;99979.53;5050951;23;20079;-77
2021/04/08 09:46:54;;;;;;;9.85;8.85;;;;;;;8.74;50.62;99928.94;5092857;23;20060;-77
2021/04/08 09:51:59;;;;;;;11.85;9.45;;;;;;;9.31;50.82;99979.25;5079362;23;20032;-77
2021/04/08 09:54:41;;;;;;;10.60;8.95;;;;;;;9.10;51.28;99940.16;5076611;28;20557;-79
2021/04/08 10:02:29;;;;;;;13.23;8.48;;;;;;;8.31;49.97;99779.84;5094165;23;20060;-84
2021/04/08 10:07:23;;;;;;;10.77;8.48;;;;;;;9.26;50.81;99966.56;5078876;23;20351;-76
2021/04/08 10:12:28;;;;;;;9.16;7.90;;;;;;;8.73;52.91;100009.72;5079405;23;20124;-77
2021/04/08 10:14:55;;;;;;;9.18;7.45;;;;;;;8.67;52.95;100012.16;5074552;28;20051;-86
2021/04/08 10:17:34;;;;;;;9.30;6.95;;;;;;;8.46;54.03;99978.28;5057668;28;20094;-75
2021/04/08 10:19:59;;;;;;;7.22;6.53;;;;;;;8.11;54.06;99977.28;5070604;23;20056;-77
2021/04/08 10:22:25;;;;;;;12.00;8.20;;;;;;;7.80;55.05;99939.22;5064032;23;20477;-76
2021/04/08 10:24:51;;;;;;;8.75;7.85;;;;;;;7.66;55.41;99922.19;5066645;28;20030;-76
2021/04/08 10:27:21;;;;;;;14.00;11.07;;;;;;;8.20;56.46;100010.59;5051518;28;20142;-77
2021/04/08 10:32:27;;;;;;;14.58;12.42;;;;;;;5.96;56.51;99698.00;5081471;23;20543;-75
2021/04/08 10:34:52;;;;;;;18.45;13.15;;;;;;;8.19;56.63;100103.66;5074860;28;20102;-76
2021/04/08 10:37:42;;;;;;;8.20;6.80;;;;;;;7.94;57.15;100114.84;5079955;23;20049;-89
2021/04/08 10:40:08;;;;;;;9.13;6.80;;;;;;;6.18;57.97;99911.78;5071746;28;20051;-75
2021/04/08 10:42:34;;;;;;;7.88;6.88;;;;;;;7.03;59.18;100103.28;5069251;23;20435;-76
2021/04/08 10:45:07;;;;;;;8.60;7.40;;;;;;;6.94;59.36;100123.34;5078269;23;20119;-76
2021/04/08 10:47:34;;;;;;;8.73;7.82;;;;;;;6.56;59.66;100068.25;5038899;28;20371;-78
2021/04/08 10:50:02;;;;;;;7.72;6.22;;;;;;;6.69;59.92;100080.16;5021450;28;20069;-78
2021/04/08 10:52:34;;;;;;;9.57;6.45;;;;;;;6.94;60.30;100099.72;5033408;28;20049;-77
2021/04/08 10:55:02;;;;;;;8.00;7.20;;;;;;;6.17;60.09;99955.53;5032339;28;20429;-81
2021/04/08 10:57:29;;;;;;;12.27;9.88;;;;;;;6.92;59.57;100050.94;5062850;23;20044;-77
2021/04/08 10:59:54;;;;;;;13.45;11.75;;;;;;;6.92;59.43;100017.66;5072967;28;20028;-81
2021/04/08 11:02:26;;;;;;;20.70;16.63;;;;;;;6.63;59.87;99956.53;5079019;23;20048;-78
2021/04/08 11:04:53;;;;;;;29.27;21.43;;;;;;;7.29;59.69;100057.03;5059767;23;20049;-77
2021/04/08 11:07:19;;;;;;;24.77;17.42;;;;;;;7.17;59.29;100026.69;5031655;28;20022;-77
2021/04/08 11:09:46;;;;;;;26.10;19.65;;;;;;;6.66;59.89;99906.38;5030445;23;20041;-76
2021/04/08 11:12:29;;;;;;;25.35;19.15;;;;;;;7.74;59.80;100058.94;5053103;28;20443;-77
2021/04/08 11:17:22;;;;;;;21.42;17.48;;;;;;;6.84;58.75;99870.56;5057295;22;20456;-78
2021/04/08 11:19:48;;;;;;;21.52;17.83;;;;;;;8.03;58.63;100042.97;5057591;23;20060;-77
2021/04/08 11:22:32;;;;;;;23.63;18.95;;;;;;;6.90;58.73;99845.53;5050223;28;20344;-77
2021/04/08 11:24:58;;;;;;;26.65;20.40;;;;;;;8.07;58.33;100002.25;5044063;28;20028;-77
2021/04/08 11:27:40;;;;;;;25.10;21.02;;;;;;;8.14;58.99;100008.56;5063699;23;20048;-78
2021/04/08 11:30:08;;;;;;;21.85;17.40;;;;;;;8.58;58.14;100042.84;5054350;23;20080;-77
2021/04/08 11:32:51;;;;;;;16.88;14.18;;;;;;;8.27;57.42;100001.13;5052519;28;20029;-77
2021/04/08 11:35:33;;;;;;;18.45;13.68;;;;;;;8.75;57.54;100056.94;5030818;23;20046;-77
2021/04/08 11:38:14;;;;;;;16.30;12.95;;;;;;;8.81;56.33;100053.69;4997426;28;20421;-77
2021/04/08 11:40:46;;;;;;;14.57;12.20;;;;;;;8.83;56.58;100043.84;5016145;23;20456;-78
2021/04/08 11:43:43;;;;;;;13.32;11.40;;;;;;;8.81;55.34;100051.91;5016121;28;20037;-85
2021/04/08 11:46:33;;;;;;;16.92;13.95;;;;;;;8.88;56.07;100054.75;5000910;28;20033;-85
2021/04/08 11:51:31;;;;;;;17.92;14.50;;;;;;;8.68;55.29;100014.63;5059450;22;20049;-77
2021/04/08 11:54:10;;;;;;;10.90;9.70;;;;;;;9.08;54.08;100071.19;5036586;28;20041;-78
2021/04/08 11:56:39;;;;;;;8.43;6.50;;;;;;;8.66;54.81;100002.59;5054561;28;20430;-78
2021/04/08 11:59:05;;;;;;;10.48;7.53;;;;;;;9.10;54.43;100062.16;5054070;28;20029;-78
2021/04/08 12:01:34;;;;;;;10.10;8.27;;;;;;;8.96;54.31;100032.94;5053262;28;20063;-77
2021/04/08 12:04:09;;;;;;;6.93;6.20;;;;;;;9.18;54.98;100054.28;5047394;28;20029;-85